createdAt,value
2019-03-05T00:00:13.410Z,13.67
2019-03-05T00:00:56.573Z,14.03
2019-03-05T00:01:43.102Z,13.50
2019-03-05T00:02:21.763Z,12.97
2019-03-05T00:03:00.431Z,12.35
2019-03-05T00:03:39.679Z,13.10
2019-03-05T00:04:18.974Z,12.53
2019-03-05T00:04:57.897Z,13.83
2019-03-05T00:05:37.228Z,13.87
2019-03-05T00:06:15.969Z,17.82
2019-03-05T00:06:54.690Z,13.72
2019-03-05T00:07:34.170Z,12.67
2019-03-05T00:08:12.817Z,14.63
2019-03-05T00:08:51.534Z,13.67
2019-03-05T00:09:30.200Z,14.00
2019-03-05T00:10:10.363Z,15.47
2019-03-05T00:10:49.744Z,15.00
2019-03-05T00:11:28.704Z,13.37
2019-03-05T00:12:08.104Z,14.90
2019-03-05T00:12:47.388Z,16.73
2019-03-05T00:13:26.633Z,14.20
2019-03-05T00:14:06.049Z,14.87
2019-03-05T00:14:45.435Z,14.30
2019-03-05T00:15:26.474Z,13.63
2019-03-05T00:16:05.687Z,13.55
2019-03-05T00:16:45.314Z,13.60
2019-03-05T00:17:23.959Z,13.37
2019-03-05T00:18:02.631Z,19.25
2019-03-05T00:18:41.341Z,14.20
2019-03-05T00:19:20.569Z,14.97
2019-03-05T00:19:59.747Z,14.20
2019-03-05T00:20:39.028Z,14.17
2019-03-05T00:21:18.324Z,13.13
2019-03-05T00:21:57.703Z,16.00
2019-03-05T00:22:37.102Z,14.50
2019-03-05T00:23:16.810Z,13.72
2019-03-05T00:24:01.073Z,12.82
2019-03-05T00:25:04.315Z,14.70
2019-03-05T00:25:43.058Z,15.53
2019-03-05T00:26:23.421Z,16.07
2019-03-05T00:27:02.105Z,15.08
2019-03-05T00:27:50.713Z,14.17
2019-03-05T00:28:43.189Z,14.43
2019-03-05T00:30:02.910Z,14.60
2019-03-05T00:31:00.318Z,14.47
2019-03-05T00:31:41.002Z,14.65
2019-03-05T00:32:20.469Z,14.93
2019-03-05T00:33:03.122Z,14.13
2019-03-05T00:34:01.200Z,15.03
2019-03-05T00:35:08.647Z,14.77
2019-03-05T00:36:24.810Z,14.35
2019-03-05T00:37:16.379Z,14.78
2019-03-05T00:38:35.123Z,14.73
2019-03-05T00:39:51.535Z,17.10
2019-03-05T00:41:03.000Z,15.23
2019-03-05T00:42:01.202Z,16.55
2019-03-05T00:43:27.024Z,16.10
2019-03-05T00:44:25.886Z,15.68
2019-03-05T00:45:18.816Z,14.63
2019-03-05T00:46:18.452Z,15.88
2019-03-05T00:47:31.273Z,14.80
2019-03-05T00:48:31.386Z,14.07
2019-03-05T00:49:35.063Z,14.75
2019-03-05T00:50:49.530Z,15.50
2019-03-05T00:52:01.832Z,16.75
2019-03-05T00:53:00.924Z,14.40
2019-03-05T00:54:20.231Z,15.43
2019-03-05T00:55:45.034Z,15.58
2019-03-05T00:56:50.931Z,16.05
2019-03-05T00:57:56.807Z,16.50
2019-03-05T00:59:12.029Z,15.40
2019-03-05T01:00:13.148Z,17.12
2019-03-05T01:01:32.978Z,15.10
2019-03-05T01:02:29.622Z,17.20
2019-03-05T01:03:20.461Z,18.37
2019-03-05T01:04:23.813Z,14.63
2019-03-05T01:05:51.926Z,17.62
2019-03-05T01:06:31.173Z,14.60
2019-03-05T01:07:10.499Z,19.30
2019-03-05T01:07:49.229Z,15.45
2019-03-05T01:08:28.028Z,15.83
2019-03-05T01:09:08.456Z,15.88
2019-03-05T01:09:47.132Z,17.02
2019-03-05T01:10:26.241Z,15.87
2019-03-05T01:11:05.148Z,15.30
2019-03-05T01:11:44.396Z,15.40
2019-03-05T01:12:24.198Z,15.73
2019-03-05T01:13:03.647Z,15.43
2019-03-05T01:13:42.382Z,17.07
2019-03-05T01:14:22.837Z,16.50
2019-03-05T01:15:02.004Z,17.05
2019-03-05T01:15:41.508Z,16.37
2019-03-05T01:16:24.598Z,22.27
2019-03-05T01:17:03.879Z,16.80
2019-03-05T01:17:46.895Z,17.00
2019-03-05T01:18:24.931Z,16.37
2019-03-05T01:19:23.324Z,20.02
2019-03-05T01:20:02.700Z,20.00
2019-03-05T01:20:42.121Z,17.37
2019-03-05T01:21:21.424Z,17.92
2019-03-05T01:22:00.632Z,20.70
2019-03-05T01:22:39.466Z,22.13
2019-03-05T01:23:18.854Z,20.97
2019-03-05T01:23:58.377Z,16.57
2019-03-05T01:24:37.316Z,26.93
2019-03-05T01:25:31.352Z,20.27
2019-03-05T01:26:10.685Z,21.23
2019-03-05T01:26:50.160Z,20.75
2019-03-05T01:27:29.658Z,17.85
2019-03-05T01:28:08.344Z,19.45
2019-03-05T01:28:46.987Z,17.80
2019-03-05T01:29:25.891Z,16.55
2019-03-05T01:30:05.135Z,20.48
2019-03-05T01:31:06.624Z,19.80
2019-03-05T01:32:06.936Z,16.97
2019-03-05T01:32:53.271Z,19.90
2019-03-05T01:33:36.727Z,29.15
2019-03-05T01:34:28.853Z,22.20
2019-03-05T01:35:19.184Z,15.88
2019-03-05T01:36:02.917Z,16.48
2019-03-05T01:36:44.898Z,17.60
2019-03-05T01:37:24.160Z,17.10
2019-03-05T01:38:02.912Z,16.97
2019-03-05T01:38:58.872Z,16.73
2019-03-05T01:39:54.481Z,17.57
2019-03-05T01:40:41.409Z,18.25
2019-03-05T01:41:21.034Z,16.90
2019-03-05T01:41:59.767Z,16.35
2019-03-05T01:42:38.495Z,17.50
2019-03-05T01:43:17.707Z,16.27
2019-03-05T01:43:56.980Z,19.20
2019-03-05T01:44:36.277Z,15.83
2019-03-05T01:45:16.664Z,15.10
2019-03-05T01:45:56.043Z,15.23
2019-03-05T01:46:35.329Z,17.30
2019-03-05T01:47:14.053Z,19.73
2019-03-05T01:47:53.528Z,15.48
2019-03-05T01:48:32.328Z,15.73
2019-03-05T01:49:11.098Z,17.20
2019-03-05T01:49:49.819Z,16.35
2019-03-05T01:50:28.602Z,16.80
2019-03-05T01:51:07.773Z,16.93
2019-03-05T01:51:47.054Z,17.07
2019-03-05T01:52:30.611Z,14.80
2019-03-05T01:53:10.346Z,19.32
2019-03-05T01:53:49.318Z,15.85
2019-03-05T01:54:28.588Z,15.80
2019-03-05T01:55:07.978Z,16.05
2019-03-05T01:55:47.511Z,15.58
2019-03-05T01:56:26.197Z,15.65
2019-03-05T01:57:04.846Z,18.82
2019-03-05T01:57:43.601Z,15.20
2019-03-05T01:58:22.997Z,16.00
2019-03-05T01:59:01.703Z,14.93
2019-03-05T01:59:40.417Z,14.58
2019-03-05T02:00:19.124Z,15.83
2019-03-05T02:00:57.896Z,15.95
2019-03-05T02:01:36.530Z,14.40
2019-03-05T02:02:15.548Z,14.73
2019-03-05T02:02:54.221Z,14.50
2019-03-05T02:03:33.348Z,15.40
2019-03-05T02:04:12.016Z,14.77
2019-03-05T02:04:50.722Z,14.10
2019-03-05T02:05:29.484Z,17.15
2019-03-05T02:06:08.144Z,15.83
2019-03-05T02:06:46.886Z,14.73
2019-03-05T02:07:25.633Z,14.60
2019-03-05T02:08:04.335Z,14.30
2019-03-05T02:08:43.067Z,15.23
2019-03-05T02:09:21.777Z,15.72
2019-03-05T02:10:01.202Z,14.60
2019-03-05T02:10:58.130Z,14.63
2019-03-05T02:11:37.320Z,14.20
2019-03-05T02:12:16.794Z,15.40
2019-03-05T02:12:56.262Z,16.83
2019-03-05T02:13:35.719Z,14.43
2019-03-05T02:14:14.882Z,15.25
2019-03-05T02:14:53.523Z,13.72
2019-03-05T02:15:32.707Z,13.78
2019-03-05T02:16:12.243Z,13.70
2019-03-05T02:16:50.904Z,14.83
2019-03-05T02:17:30.373Z,14.90
2019-03-05T02:18:09.433Z,14.28
2019-03-05T02:18:48.637Z,14.77
2019-03-05T02:19:41.607Z,13.47
2019-03-05T02:20:27.986Z,15.00
2019-03-05T02:21:07.255Z,16.33
2019-03-05T02:21:46.542Z,13.83
2019-03-05T02:22:54.762Z,16.30
2019-03-05T02:24:09.922Z,14.20
2019-03-05T02:25:13.264Z,18.30
2019-03-05T02:26:12.903Z,15.72
2019-03-05T02:27:34.076Z,13.47
2019-03-05T02:28:57.331Z,13.95
2019-03-05T02:29:48.856Z,14.85
2019-03-05T02:30:42.331Z,14.83
2019-03-05T02:31:55.328Z,13.67
2019-03-05T02:33:08.594Z,13.03
2019-03-05T02:34:27.474Z,13.97
2019-03-05T02:35:21.199Z,14.35
2019-03-05T02:36:27.307Z,14.05
2019-03-05T02:37:48.584Z,13.78
2019-03-05T02:38:49.092Z,14.30
2019-03-05T02:40:19.612Z,13.70
2019-03-05T02:41:26.862Z,13.65
2019-03-05T02:42:20.299Z,14.40
2019-03-05T02:43:18.582Z,16.17
2019-03-05T02:44:40.605Z,13.68
2019-03-05T02:45:35.091Z,14.10
2019-03-05T02:46:51.203Z,13.50
2019-03-05T02:47:52.422Z,16.07
2019-03-05T02:49:12.243Z,14.35
2019-03-05T02:50:42.304Z,13.10
2019-03-05T02:51:46.519Z,14.03
2019-03-05T02:53:09.202Z,14.87
2019-03-05T02:54:40.610Z,13.10
2019-03-05T02:56:14.556Z,13.78
2019-03-05T02:57:17.707Z,14.43
2019-03-05T02:57:52.864Z,14.40
2019-03-05T02:58:28.396Z,14.07
2019-03-05T02:59:03.605Z,14.65
2019-03-05T02:59:42.334Z,13.65
2019-03-05T03:00:30.807Z,12.95
2019-03-05T03:01:34.327Z,12.07
2019-03-05T03:02:30.545Z,13.53
2019-03-05T03:03:18.687Z,13.43
2019-03-05T03:04:01.403Z,13.83
2019-03-05T03:04:44.315Z,14.20
2019-03-05T03:05:33.648Z,14.05
2019-03-05T03:06:22.298Z,13.00
2019-03-05T03:07:01.483Z,12.53
2019-03-05T03:07:40.797Z,14.57
2019-03-05T03:08:20.251Z,13.30
2019-03-05T03:09:32.425Z,12.63
2019-03-05T03:10:24.981Z,13.50
2019-03-05T03:11:03.946Z,12.70
2019-03-05T03:11:43.266Z,13.03
2019-03-05T03:12:23.574Z,13.28
2019-03-05T03:13:02.981Z,14.30
2019-03-05T03:13:41.717Z,12.65
2019-03-05T03:14:20.670Z,13.53
2019-03-05T03:14:59.466Z,14.00
2019-03-05T03:15:38.174Z,12.37
2019-03-05T03:16:17.683Z,12.60
2019-03-05T03:16:57.069Z,13.20
2019-03-05T03:17:36.178Z,12.37
2019-03-05T03:18:15.080Z,13.50
2019-03-05T03:18:53.762Z,13.90
2019-03-05T03:19:33.260Z,13.27
2019-03-05T03:20:13.318Z,14.83
2019-03-05T03:20:52.591Z,13.60
2019-03-05T03:21:31.772Z,13.00
2019-03-05T03:22:11.052Z,12.60
2019-03-05T03:22:49.696Z,13.17
2019-03-05T03:23:28.465Z,12.03
2019-03-05T03:24:07.093Z,12.53
2019-03-05T03:24:46.004Z,13.63
2019-03-05T03:25:25.801Z,12.73
2019-03-05T03:26:04.878Z,12.30
2019-03-05T03:26:44.419Z,12.73
2019-03-05T03:27:23.921Z,12.37
2019-03-05T03:28:03.235Z,12.90
2019-03-05T03:28:42.629Z,13.20
2019-03-05T03:29:22.125Z,12.77
2019-03-05T03:30:01.679Z,12.70
2019-03-05T03:30:40.366Z,16.20
2019-03-05T03:31:19.105Z,12.20
2019-03-05T03:31:57.727Z,12.00
2019-03-05T03:32:36.604Z,13.23
2019-03-05T03:33:15.893Z,12.93
2019-03-05T03:33:55.270Z,12.07
2019-03-05T03:34:34.540Z,11.97
2019-03-05T03:35:14.528Z,12.97
2019-03-05T03:35:54.029Z,12.63
2019-03-05T03:36:33.235Z,13.13
2019-03-05T03:37:12.807Z,11.83
2019-03-05T03:37:52.040Z,12.87
2019-03-05T03:38:31.492Z,11.80
2019-03-05T03:39:11.115Z,11.77
2019-03-05T03:39:49.772Z,11.77
2019-03-05T03:40:28.851Z,12.83
2019-03-05T03:41:07.790Z,11.87
2019-03-05T03:41:47.087Z,13.17
2019-03-05T03:42:26.102Z,11.93
2019-03-05T03:43:05.334Z,12.23
2019-03-05T03:43:44.619Z,12.53
2019-03-05T03:44:23.868Z,13.43
2019-03-05T03:45:03.350Z,12.67
2019-03-05T03:45:42.592Z,12.47
2019-03-05T03:46:22.030Z,12.80
2019-03-05T03:47:01.001Z,12.80
2019-03-05T03:47:39.777Z,11.27
2019-03-05T03:48:19.176Z,11.90
2019-03-05T03:48:58.033Z,11.53
2019-03-05T03:49:37.154Z,12.70
2019-03-05T03:50:16.372Z,12.23
2019-03-05T03:50:55.431Z,11.83
2019-03-05T03:51:34.508Z,11.37
2019-03-05T03:52:13.787Z,12.60
2019-03-05T03:52:53.087Z,12.30
2019-03-05T03:53:32.374Z,11.33
2019-03-05T03:54:11.722Z,12.60
2019-03-05T03:54:50.385Z,12.13
2019-03-05T03:55:29.126Z,11.80
2019-03-05T03:56:07.856Z,12.70
2019-03-05T03:56:46.771Z,12.47
2019-03-05T03:57:26.209Z,11.77
2019-03-05T03:58:05.385Z,11.27
2019-03-05T03:58:44.894Z,11.80
2019-03-05T03:59:24.498Z,11.53
2019-03-05T04:00:03.846Z,13.27
2019-03-05T04:00:42.581Z,10.60
2019-03-05T04:01:21.225Z,10.70
2019-03-05T04:01:59.942Z,11.37
2019-03-05T04:02:39.013Z,12.07
2019-03-05T04:03:18.283Z,11.27
2019-03-05T04:03:57.032Z,12.13
2019-03-05T04:04:35.661Z,11.50
2019-03-05T04:05:15.042Z,12.07
2019-03-05T04:05:53.695Z,11.97
2019-03-05T04:06:33.019Z,12.57
2019-03-05T04:07:12.236Z,12.67
2019-03-05T04:07:50.933Z,13.33
2019-03-05T04:08:29.918Z,11.70
2019-03-05T04:09:10.862Z,13.93
2019-03-05T04:09:49.862Z,11.50
2019-03-05T04:10:32.264Z,12.00
2019-03-05T04:11:11.683Z,11.90
2019-03-05T04:11:50.435Z,11.73
2019-03-05T04:12:29.475Z,13.50
2019-03-05T04:13:11.939Z,12.17
2019-03-05T04:13:51.327Z,13.60
2019-03-05T04:14:30.216Z,11.37
2019-03-05T04:15:10.099Z,12.03
2019-03-05T04:15:50.933Z,11.70
2019-03-05T04:16:30.049Z,11.50
2019-03-05T04:17:09.374Z,12.47
2019-03-05T04:17:48.975Z,13.33
2019-03-05T04:18:28.276Z,11.03
2019-03-05T04:19:10.989Z,11.30
2019-03-05T04:19:50.106Z,10.87
2019-03-05T04:20:37.294Z,11.50
2019-03-05T04:21:22.888Z,11.43
2019-03-05T04:22:01.597Z,16.10
2019-03-05T04:22:59.236Z,11.97
2019-03-05T04:23:38.289Z,11.17
2019-03-05T04:24:17.772Z,11.27
2019-03-05T04:24:56.976Z,12.17
2019-03-05T04:25:39.159Z,10.53
2019-03-05T04:26:17.482Z,11.50
2019-03-05T04:26:56.819Z,10.73
2019-03-05T04:27:36.212Z,11.83
2019-03-05T04:28:15.085Z,11.77
2019-03-05T04:28:53.772Z,11.97
2019-03-05T04:29:33.254Z,11.57
2019-03-05T04:30:14.430Z,11.37
2019-03-05T04:30:56.407Z,11.70
2019-03-05T04:31:36.141Z,11.13
2019-03-05T04:32:15.258Z,11.25
2019-03-05T04:32:53.959Z,11.10
2019-03-05T04:33:32.631Z,10.80
2019-03-05T04:34:11.442Z,11.70
2019-03-05T04:34:50.464Z,11.83
2019-03-05T04:35:29.685Z,11.07
2019-03-05T04:36:08.393Z,11.13
2019-03-05T04:36:47.964Z,11.63
2019-03-05T04:37:27.216Z,11.07
2019-03-05T04:38:06.631Z,12.93
2019-03-05T04:38:45.542Z,12.03
2019-03-05T04:39:24.361Z,11.13
2019-03-05T04:40:06.756Z,11.83
2019-03-05T04:40:45.481Z,11.07
2019-03-05T04:41:24.179Z,11.53
2019-03-05T04:42:02.937Z,11.13
2019-03-05T04:42:42.707Z,10.30
2019-03-05T04:43:21.966Z,11.73
2019-03-05T04:44:01.278Z,11.60
2019-03-05T04:44:54.597Z,11.50
2019-03-05T04:45:48.606Z,11.43
2019-03-05T04:46:38.395Z,11.87
2019-03-05T04:47:17.745Z,11.67
2019-03-05T04:47:56.670Z,12.40
2019-03-05T04:48:35.238Z,11.17
2019-03-05T04:49:21.864Z,11.27
2019-03-05T04:50:19.355Z,11.87
2019-03-05T04:51:08.500Z,11.67
2019-03-05T04:51:52.071Z,11.13
2019-03-05T04:52:34.343Z,10.93
2019-03-05T04:53:13.296Z,11.23
2019-03-05T04:53:52.355Z,12.00
2019-03-05T04:54:31.545Z,11.17
2019-03-05T04:55:11.734Z,12.10
2019-03-05T04:55:51.039Z,10.67
2019-03-05T04:56:30.287Z,12.37
2019-03-05T04:57:10.517Z,11.67
2019-03-05T04:57:50.684Z,11.33
2019-03-05T04:58:30.764Z,11.70
2019-03-05T04:59:10.220Z,10.97
2019-03-05T04:59:50.225Z,10.43
2019-03-05T05:00:28.908Z,11.40
2019-03-05T05:01:07.605Z,10.73
2019-03-05T05:01:46.959Z,11.47
2019-03-05T05:02:25.731Z,11.17
2019-03-05T05:03:04.467Z,11.10
2019-03-05T05:03:43.436Z,12.23
2019-03-05T05:04:22.637Z,11.70
2019-03-05T05:05:01.701Z,10.60
2019-03-05T05:05:41.016Z,11.13
2019-03-05T05:06:20.541Z,10.87
2019-03-05T05:06:59.291Z,11.47
2019-03-05T05:07:38.097Z,13.53
2019-03-05T05:08:16.836Z,10.90
2019-03-05T05:08:55.635Z,11.40
2019-03-05T05:09:34.335Z,11.10
2019-03-05T05:10:13.475Z,11.97
2019-03-05T05:10:52.775Z,11.73
2019-03-05T05:11:31.864Z,11.30
2019-03-05T05:12:11.151Z,10.73
2019-03-05T05:12:50.684Z,11.17
2019-03-05T05:13:30.116Z,11.43
2019-03-05T05:14:09.593Z,11.57
2019-03-05T05:14:49.064Z,11.90
2019-03-05T05:15:30.840Z,11.83
2019-03-05T05:16:10.070Z,12.00
2019-03-05T05:16:49.688Z,12.20
2019-03-05T05:17:28.401Z,11.47
2019-03-05T05:18:07.481Z,11.50
2019-03-05T05:18:46.177Z,11.07
2019-03-05T05:19:27.316Z,11.07
2019-03-05T05:20:05.188Z,11.07
2019-03-05T05:20:44.335Z,11.77
2019-03-05T05:21:23.363Z,11.57
2019-03-05T05:22:02.328Z,10.43
2019-03-05T05:22:41.892Z,11.67
2019-03-05T05:23:21.124Z,11.57
2019-03-05T05:24:00.413Z,11.87
2019-03-05T05:24:39.327Z,10.47
2019-03-05T05:25:18.427Z,11.70
2019-03-05T05:25:57.770Z,12.13
2019-03-05T05:26:36.922Z,10.83
2019-03-05T05:27:15.884Z,11.57
2019-03-05T05:27:55.150Z,12.23
2019-03-05T05:28:34.210Z,11.27
2019-03-05T05:29:13.681Z,10.23
2019-03-05T05:29:52.842Z,10.93
2019-03-05T05:30:34.444Z,11.00
2019-03-05T05:31:14.036Z,11.77
2019-03-05T05:31:53.562Z,11.30
2019-03-05T05:32:33.051Z,12.10
2019-03-05T05:33:12.178Z,11.10
2019-03-05T05:33:51.359Z,11.63
2019-03-05T05:34:30.210Z,11.50
2019-03-05T05:35:09.011Z,11.53
2019-03-05T05:35:47.649Z,11.20
2019-03-05T05:36:26.646Z,11.80
2019-03-05T05:37:05.552Z,12.67
2019-03-05T05:37:44.830Z,11.57
2019-03-05T05:38:24.167Z,11.27
2019-03-05T05:39:03.215Z,11.57
2019-03-05T05:40:16.268Z,11.50
2019-03-05T05:40:54.983Z,12.27
2019-03-05T05:41:33.623Z,12.03
2019-03-05T05:42:12.432Z,11.43
2019-03-05T05:42:51.104Z,11.47
2019-03-05T05:43:31.980Z,11.00
2019-03-05T05:44:11.447Z,10.93
2019-03-05T05:44:50.803Z,11.30
2019-03-05T05:45:32.226Z,11.87
2019-03-05T05:46:11.768Z,11.83
2019-03-05T05:46:51.080Z,10.90
2019-03-05T05:47:30.376Z,11.50
2019-03-05T05:48:09.062Z,12.50
2019-03-05T05:48:47.842Z,11.93
2019-03-05T05:49:26.975Z,11.97
2019-03-05T05:50:05.942Z,12.03
2019-03-05T05:50:44.675Z,12.23
2019-03-05T05:51:23.813Z,12.13
2019-03-05T05:52:03.352Z,13.40
2019-03-05T05:52:43.391Z,12.17
2019-03-05T05:53:22.056Z,11.20
2019-03-05T05:54:00.733Z,12.20
2019-03-05T05:54:39.457Z,11.23
2019-03-05T05:55:18.273Z,11.43
2019-03-05T05:55:57.536Z,11.17
2019-03-05T05:56:36.936Z,12.83
2019-03-05T05:57:15.632Z,11.37
2019-03-05T05:57:54.243Z,12.00
2019-03-05T05:58:33.683Z,11.27
2019-03-05T05:59:13.912Z,12.07
2019-03-05T05:59:52.656Z,12.17
2019-03-05T06:00:32.420Z,12.53
2019-03-05T06:01:13.674Z,11.37
2019-03-05T06:01:53.149Z,11.80
2019-03-05T06:02:32.565Z,11.87
2019-03-05T06:03:11.239Z,11.20
2019-03-05T06:03:50.006Z,11.50
2019-03-05T06:04:29.082Z,11.80
2019-03-05T06:05:08.533Z,26.47
2019-03-05T06:05:47.327Z,12.07
2019-03-05T06:06:26.281Z,12.03
2019-03-05T06:07:05.401Z,11.77
2019-03-05T06:07:44.072Z,11.13
2019-03-05T06:08:23.250Z,13.20
2019-03-05T06:09:02.248Z,10.73
2019-03-05T06:09:40.896Z,11.87
2019-03-05T06:10:19.236Z,11.63
2019-03-05T06:10:58.837Z,12.17
2019-03-05T06:11:38.386Z,11.63
2019-03-05T06:12:17.580Z,12.27
2019-03-05T06:12:57.146Z,12.50
2019-03-05T06:13:36.547Z,12.80
2019-03-05T06:14:15.273Z,13.40
2019-03-05T06:14:54.632Z,11.70
2019-03-05T06:15:33.596Z,11.73
2019-03-05T06:16:12.967Z,12.37
2019-03-05T06:16:52.091Z,12.47
2019-03-05T06:17:31.781Z,12.20
2019-03-05T06:18:10.658Z,11.70
2019-03-05T06:18:49.684Z,11.93
2019-03-05T06:19:29.396Z,13.33
2019-03-05T06:20:09.277Z,12.77
2019-03-05T06:20:48.810Z,12.43
2019-03-05T06:21:28.581Z,13.83
2019-03-05T06:22:07.446Z,12.90
2019-03-05T06:22:45.935Z,12.57
2019-03-05T06:23:24.640Z,12.97
2019-03-05T06:24:03.332Z,12.00
2019-03-05T06:24:42.149Z,13.47
2019-03-05T06:25:20.870Z,13.17
2019-03-05T06:26:00.054Z,11.70
2019-03-05T06:26:39.207Z,11.27
2019-03-05T06:27:18.187Z,12.30
2019-03-05T06:27:57.613Z,12.50
2019-03-05T06:28:37.146Z,12.60
2019-03-05T06:29:16.875Z,12.53
2019-03-05T06:29:56.147Z,11.47
2019-03-05T06:30:35.685Z,12.13
2019-03-05T06:31:14.335Z,12.27
2019-03-05T06:31:53.195Z,13.03
2019-03-05T06:32:32.707Z,12.17
2019-03-05T06:33:11.632Z,11.97
2019-03-05T06:33:50.485Z,12.33
2019-03-05T06:34:29.962Z,10.73
2019-03-05T06:35:09.325Z,13.00
2019-03-05T06:35:48.877Z,12.00
2019-03-05T06:36:28.323Z,13.37
2019-03-05T06:37:07.000Z,13.73
2019-03-05T06:37:46.520Z,12.83
2019-03-05T06:38:25.590Z,13.23
2019-03-05T06:39:06.312Z,13.57
2019-03-05T06:39:48.086Z,13.07
2019-03-05T06:40:26.364Z,12.53
2019-03-05T06:41:05.797Z,12.93
2019-03-05T06:41:45.220Z,13.03
2019-03-05T06:42:23.928Z,13.03
2019-03-05T06:43:02.605Z,12.10
2019-03-05T06:43:41.600Z,12.60
2019-03-05T06:44:20.322Z,16.40
2019-03-05T06:44:59.217Z,13.73
2019-03-05T06:45:38.765Z,13.07
2019-03-05T06:46:17.710Z,12.47
2019-03-05T06:46:56.615Z,12.50
2019-03-05T06:47:35.334Z,13.47
2019-03-05T06:48:14.395Z,14.93
2019-03-05T06:48:53.079Z,13.47
2019-03-05T06:49:32.212Z,11.97
2019-03-05T06:50:13.349Z,13.87
2019-03-05T06:50:52.112Z,12.63
2019-03-05T06:51:31.092Z,16.00
2019-03-05T06:52:11.842Z,13.23
2019-03-05T06:52:50.996Z,13.13
2019-03-05T06:53:30.494Z,12.63
2019-03-05T06:54:09.572Z,12.67
2019-03-05T06:54:48.944Z,13.87
2019-03-05T06:55:27.975Z,14.53
2019-03-05T06:56:06.772Z,11.90
2019-03-05T06:56:45.468Z,12.50
2019-03-05T06:57:24.054Z,12.97
2019-03-05T06:58:02.840Z,12.47
2019-03-05T06:58:41.627Z,14.10
2019-03-05T06:59:20.869Z,12.27
2019-03-05T07:00:00.423Z,12.70
2019-03-05T07:00:40.902Z,12.80
2019-03-05T07:01:20.098Z,13.50
2019-03-05T07:01:59.347Z,13.40
2019-03-05T07:02:38.804Z,13.63
2019-03-05T07:03:18.348Z,12.13
2019-03-05T07:03:57.039Z,12.43
2019-03-05T07:04:36.337Z,14.00
2019-03-05T07:05:50.194Z,13.90
2019-03-05T07:06:55.628Z,12.97
2019-03-05T07:07:35.224Z,13.00
2019-03-05T07:08:14.941Z,13.70
2019-03-05T07:09:01.482Z,13.10
2019-03-05T07:10:12.230Z,13.47
2019-03-05T07:11:20.921Z,13.57
2019-03-05T07:12:23.225Z,13.27
2019-03-05T07:13:14.593Z,15.13
2019-03-05T07:14:03.347Z,13.37
2019-03-05T07:15:20.231Z,14.60
2019-03-05T07:16:37.932Z,14.17
2019-03-05T07:17:26.146Z,13.90
2019-03-05T07:18:15.315Z,12.60
2019-03-05T07:19:03.903Z,13.80
2019-03-05T07:19:57.940Z,14.13
2019-03-05T07:21:19.231Z,13.63
2019-03-05T07:22:28.540Z,13.20
2019-03-05T07:23:47.496Z,12.73
2019-03-05T07:25:05.844Z,13.53
2019-03-05T07:25:45.045Z,13.20
2019-03-05T07:26:27.648Z,14.57
2019-03-05T07:27:06.454Z,14.43
2019-03-05T07:27:51.160Z,14.13
2019-03-05T07:28:30.537Z,13.33
2019-03-05T07:29:09.097Z,14.77
2019-03-05T07:29:48.019Z,14.13
2019-03-05T07:30:30.384Z,12.60
2019-03-05T07:31:09.791Z,13.40
2019-03-05T07:31:48.785Z,12.30
2019-03-05T07:32:28.088Z,12.90
2019-03-05T07:33:06.784Z,13.87
2019-03-05T07:33:47.380Z,14.10
2019-03-05T07:34:30.275Z,13.23
2019-03-05T07:35:09.971Z,13.13
2019-03-05T07:35:49.131Z,13.87
2019-03-05T07:36:28.170Z,14.20
2019-03-05T07:37:07.268Z,13.50
2019-03-05T07:37:46.190Z,13.47
2019-03-05T07:38:24.898Z,15.03
2019-03-05T07:39:06.874Z,13.90
2019-03-05T07:39:45.579Z,15.00
2019-03-05T07:40:25.045Z,14.27
2019-03-05T07:41:05.028Z,13.83
2019-03-05T07:41:45.101Z,13.50
2019-03-05T07:42:25.121Z,12.67
2019-03-05T07:43:04.979Z,12.77
2019-03-05T07:44:41.503Z,12.70
2019-03-05T07:45:23.612Z,13.20
2019-03-05T07:46:02.454Z,12.90
2019-03-05T07:46:41.953Z,13.40
2019-03-05T07:47:21.263Z,13.80
2019-03-05T07:48:00.338Z,12.27
2019-03-05T07:48:39.043Z,13.63
2019-03-05T07:49:17.817Z,12.90
2019-03-05T07:49:57.158Z,14.07
2019-03-05T07:50:36.279Z,13.90
2019-03-05T07:51:14.968Z,13.80
2019-03-05T07:51:54.056Z,14.13
2019-03-05T07:52:32.787Z,13.77
2019-03-05T07:53:11.530Z,13.50
2019-03-05T07:53:51.003Z,12.40
2019-03-05T07:54:29.767Z,13.53
2019-03-05T07:55:13.657Z,13.53
2019-03-05T07:55:49.134Z,12.50
2019-03-05T07:56:27.774Z,13.10
2019-03-05T07:57:06.827Z,13.50
2019-03-05T07:57:46.170Z,12.93
2019-03-05T07:58:25.422Z,15.37
2019-03-05T07:59:04.778Z,12.33
2019-03-05T07:59:43.413Z,12.50
2019-03-05T08:00:23.732Z,13.50
2019-03-05T08:01:02.412Z,11.87
2019-03-05T08:01:41.053Z,13.47
2019-03-05T08:02:19.776Z,14.30
2019-03-05T08:02:59.225Z,12.87
2019-03-05T08:03:39.324Z,12.80
2019-03-05T08:04:18.258Z,13.10
2019-03-05T08:04:57.558Z,13.27
2019-03-05T08:05:36.980Z,13.37
2019-03-05T08:06:15.805Z,12.93
2019-03-05T08:06:55.009Z,13.73
2019-03-05T08:07:33.632Z,13.70
2019-03-05T08:08:46.468Z,12.80
2019-03-05T08:09:35.524Z,13.07
2019-03-05T08:10:30.535Z,13.20
2019-03-05T08:11:09.206Z,13.33
2019-03-05T08:11:47.922Z,13.87
2019-03-05T08:12:54.910Z,13.30
2019-03-05T08:14:17.855Z,12.50
2019-03-05T08:15:05.976Z,13.87
2019-03-05T08:16:12.317Z,14.37
2019-03-05T08:16:51.648Z,11.90
2019-03-05T08:17:31.164Z,14.13
2019-03-05T08:18:09.877Z,13.10
2019-03-05T08:18:48.523Z,12.90
2019-03-05T08:19:27.157Z,12.27
2019-03-05T08:20:05.829Z,12.50
2019-03-05T08:20:45.089Z,13.40
2019-03-05T08:21:24.314Z,13.43
2019-03-05T08:22:03.498Z,12.03
2019-03-05T08:22:42.218Z,12.83
2019-03-05T08:23:20.981Z,13.23
2019-03-05T08:23:59.865Z,11.90
2019-03-05T08:24:39.106Z,13.77
2019-03-05T08:25:18.564Z,11.93
2019-03-05T08:25:57.276Z,13.80
2019-03-05T08:26:36.434Z,12.90
2019-03-05T08:27:15.112Z,12.77
2019-03-05T08:27:53.832Z,12.90
2019-03-05T08:28:32.926Z,12.53
2019-03-05T08:29:12.283Z,14.07
2019-03-05T08:29:50.945Z,12.73
2019-03-05T08:30:30.904Z,14.03
2019-03-05T08:31:09.588Z,13.50
2019-03-05T08:31:48.873Z,12.50
2019-03-05T08:32:28.196Z,14.30
2019-03-05T08:33:07.210Z,12.33
2019-03-05T08:33:46.721Z,13.47
2019-03-05T08:34:25.396Z,16.33
2019-03-05T08:35:04.100Z,13.00
2019-03-05T08:35:43.061Z,14.70
2019-03-05T08:36:21.830Z,12.77
2019-03-05T08:37:00.614Z,12.17
2019-03-05T08:37:39.695Z,12.33
2019-03-05T08:38:19.286Z,12.10
2019-03-05T08:39:17.610Z,12.53
2019-03-05T08:39:56.337Z,13.30
2019-03-05T08:40:35.027Z,12.80
2019-03-05T08:41:14.475Z,12.70
2019-03-05T08:41:53.219Z,13.20
2019-03-05T08:42:31.908Z,16.53
2019-03-05T08:43:11.361Z,13.60
2019-03-05T08:43:50.174Z,13.10
2019-03-05T08:44:29.015Z,13.63
2019-03-05T08:45:08.407Z,12.00
2019-03-05T08:45:47.922Z,13.13
2019-03-05T08:46:26.582Z,13.57
2019-03-05T08:47:05.238Z,15.67
2019-03-05T08:47:43.909Z,12.60
2019-03-05T08:48:23.468Z,13.10
2019-03-05T08:49:02.254Z,13.90
2019-03-05T08:49:41.439Z,14.63
2019-03-05T08:50:21.116Z,14.47
2019-03-05T08:51:00.432Z,13.90
2019-03-05T08:51:39.706Z,12.57
2019-03-05T08:52:19.069Z,14.50
2019-03-05T08:52:58.222Z,13.90
2019-03-05T08:53:48.808Z,13.80
2019-03-05T08:54:18.205Z,13.33
2019-03-05T08:54:56.868Z,13.13
2019-03-05T08:55:35.600Z,13.43
2019-03-05T08:56:15.467Z,12.95
2019-03-05T08:56:54.149Z,13.57
2019-03-05T08:57:32.925Z,15.50
2019-03-05T08:58:11.693Z,14.10
2019-03-05T08:58:50.893Z,14.87
2019-03-05T08:59:32.485Z,13.43
2019-03-05T09:00:12.559Z,13.37
2019-03-05T09:00:51.616Z,14.07
2019-03-05T09:01:30.864Z,13.70
2019-03-05T09:02:10.319Z,14.07
2019-03-05T09:02:49.588Z,13.30
2019-03-05T09:03:28.265Z,13.17
2019-03-05T09:04:06.875Z,13.17
2019-03-05T09:04:46.223Z,28.43
2019-03-05T09:05:24.871Z,15.50
2019-03-05T09:06:03.674Z,14.53
2019-03-05T09:06:42.948Z,14.07
2019-03-05T09:07:21.632Z,14.03
2019-03-05T09:08:02.090Z,13.83
2019-03-05T09:08:41.421Z,14.10
2019-03-05T09:09:20.829Z,14.00
2019-03-05T09:10:00.369Z,14.10
2019-03-05T09:10:40.032Z,14.30
2019-03-05T09:11:18.783Z,14.20
2019-03-05T09:11:57.438Z,13.90
2019-03-05T09:12:36.142Z,14.27
2019-03-05T09:13:14.876Z,14.47
2019-03-05T09:13:53.815Z,14.50
2019-03-05T09:14:34.471Z,14.13
2019-03-05T09:15:15.206Z,13.17
2019-03-05T09:15:53.839Z,13.00
2019-03-05T09:16:33.038Z,14.13